LFSL - Brive , Souillac,France,Corrèze Lot
Mise à jour: Fri, 19-Oct-2018 01:00 CEST
Clear
Clear
 Wind from varies
Vent: varies 4 km/h
Température: 11°C
Point de Rosée: 9°C
Humidité: 88%
Barometre: 1016 hPa
Visibilité: greater than 10 km
2018/10/18 23:00 LFSL 182300Z AUTO VRB02KT CAVOK 11/09 Q1016